Mannboro, Virginia
Current Conditions -  °F | °C
As of 11:15 AM on Thursday 30 Oct 2014 (Local Time) from KBKT Reporting Station
Clear Clear  
Wind Chill: 56°   Ceiling: Unl
Heat Index: 56°   Visibility: 10mi
Dew Point: 46°   Wind: 6mph
Humidity: 69%   Direction: 10°N
Pressure: 30.07"   Gusts: NA
Location:  37.25°N, 77.82°W
Report Text: KBKT 301515Z AUTO 01005KT 10SM CLR 14/08 A3007 RMK AO1 T01350080
Loading
Personal Weather Stations






























Interactive Weather Map
Tropical Storm Tracking
New forecast layout! Learn more

10-Day Weather Forecast

Advertisements
Track Severe Weather on mobile